Stickney, South Dakota
Current Conditions -  °F | °C
As of 12:53 PM on Tuesday 27 Jan 2015 (Local Time) from KMHE Reporting Station
Clear Clear  
Wind Chill: 40°   Ceiling: Unl
Heat Index: 46°   Visibility: 10mi
Dew Point: 37°   Wind: 15mph
Humidity: 71%   Direction: 150°SSE
Pressure: 29.99"   Gusts: NA
Location:  43.59°N, 98.44°W
Report Text: KMHE 271853Z AUTO 15013KT 10SM CLR 08/03 A2999 RMK AO2 SLP166 T00780028
Loading
Personal Weather Stations






























Interactive Weather Map New forecast layout! Learn more

10-Day Weather Forecast

Advertisements
Track Severe Weather on mobile